Time;durP1;ratioP1;P1;durP2;ratioP2;P2;SDS_P1;SDS_P2;PMS_P1;PMS_P2;Temp;Humidity;BMP_temperature;BMP_pressure;BME280_temperature;BME280_humidity;BME280_pressure;Samples;Min_cycle;Max_cycle;Signal;HPM_P1;HPM_P2
2022/04/23 00:01:43;;;;;;;3.53;3.33;;;10.70;99.90;;;;;;5070889;28;20532;-77
2022/04/23 00:04:10;;;;;;;3.10;2.95;;;10.70;99.90;;;;;;5059105;28;20206;-77
2022/04/23 00:06:36;;;;;;;3.13;2.92;;;10.70;99.90;;;;;;5055408;28;20196;-77
2022/04/23 00:09:02;;;;;;;3.47;3.28;;;10.70;99.90;;;;;;5055393;28;20686;-77
2022/04/23 00:11:27;;;;;;;3.28;3.08;;;10.70;99.90;;;;;;5055352;28;20175;-77
2022/04/23 00:13:55;;;;;;;3.25;3.05;;;10.70;99.90;;;;;;5023893;28;20204;-77
2022/04/23 00:16:24;;;;;;;3.33;2.92;;;10.70;99.90;;;;;;5035500;28;20219;-77
2022/04/23 00:18:51;;;;;;;3.28;3.08;;;10.60;99.90;;;;;;5034811;28;20188;-77
2022/04/23 00:21:18;;;;;;;3.28;3.08;;;10.60;99.90;;;;;;5035464;28;20173;-77
2022/04/23 00:23:46;;;;;;;3.33;3.10;;;10.60;99.90;;;;;;5034869;28;20165;-77
2022/04/23 00:26:12;;;;;;;3.78;3.58;;;10.60;99.90;;;;;;5035374;28;20701;-77
2022/04/23 00:28:38;;;;;;;4.20;3.13;;;10.60;99.90;;;;;;5035124;28;20173;-76
2022/04/23 00:31:05;;;;;;;4.95;3.40;;;10.50;99.90;;;;;;5043779;28;20207;-76
2022/04/23 00:33:37;;;;;;;3.22;3.03;;;10.50;99.90;;;;;;5045999;28;20172;-76
2022/04/23 00:36:07;;;;;;;4.30;3.38;;;10.50;99.90;;;;;;5057243;28;20674;-76
2022/04/23 00:38:33;;;;;;;3.58;3.38;;;10.40;99.90;;;;;;5052621;28;20190;-76
2022/04/23 00:40:59;;;;;;;3.30;3.10;;;10.40;99.90;;;;;;5054323;28;20195;-77
2022/04/23 00:43:34;;;;;;;3.25;3.08;;;10.30;99.90;;;;;;5047308;28;20199;-78
2022/04/23 00:46:00;;;;;;;3.38;3.17;;;10.30;99.90;;;;;;5034785;28;20215;-78
2022/04/23 00:48:26;;;;;;;3.58;3.28;;;10.30;99.90;;;;;;5052392;28;20639;-78
2022/04/23 00:50:56;;;;;;;4.80;3.08;;;10.30;99.90;;;;;;5049434;28;20617;-78
2022/04/23 00:53:23;;;;;;;3.40;3.20;;;10.30;99.90;;;;;;5034110;28;20176;-78
2022/04/23 00:55:49;;;;;;;3.65;3.40;;;10.30;99.90;;;;;;5034459;28;20275;-78
2022/04/23 00:58:16;;;;;;;3.80;3.60;;;10.20;99.90;;;;;;5034572;28;20238;-78
2022/04/23 01:00:42;;;;;;;3.58;3.38;;;10.30;99.90;;;;;;5034396;28;20350;-78
2022/04/23 01:03:08;;;;;;;3.75;3.47;;;10.30;99.90;;;;;;5060709;28;20659;-78
2022/04/23 01:05:34;;;;;;;3.28;3.08;;;10.30;99.90;;;;;;5062286;28;20203;-78
2022/04/23 01:08:04;;;;;;;3.58;3.38;;;10.30;99.90;;;;;;5053709;28;20168;-78
2022/04/23 01:10:30;;;;;;;3.90;3.70;;;10.30;99.90;;;;;;5043073;28;20266;-78
2022/04/23 01:12:55;;;;;;;4.20;3.95;;;10.30;99.90;;;;;;5050583;28;20265;-77
2022/04/23 01:15:21;;;;;;;4.13;3.83;;;10.30;99.90;;;;;;5050226;28;20674;-77
2022/04/23 01:17:49;;;;;;;4.13;3.88;;;10.20;99.90;;;;;;5036193;28;20194;-77
2022/04/23 01:20:15;;;;;;;4.55;4.25;;;10.10;99.90;;;;;;5043423;28;20201;-77
2022/04/23 01:22:43;;;;;;;4.47;4.18;;;10.00;99.90;;;;;;5033951;28;20227;-77
2022/04/23 01:25:12;;;;;;;4.32;4.03;;;9.90;99.90;;;;;;5034296;28;20180;-77
2022/04/23 01:27:39;;;;;;;4.05;3.83;;;9.80;99.90;;;;;;5034090;28;20203;-77
2022/04/23 01:30:07;;;;;;;4.88;4.57;;;9.60;99.90;;;;;;5048033;28;20262;-77
2022/04/23 01:32:33;;;;;;;4.13;3.83;;;9.50;99.90;;;;;;5053589;28;20180;-77
2022/04/23 01:34:59;;;;;;;4.50;4.20;;;9.40;99.90;;;;;;5053733;28;20245;-77
2022/04/23 01:37:25;;;;;;;4.75;4.35;;;9.30;99.90;;;;;;5034837;28;20896;-77
2022/04/23 01:39:51;;;;;;;4.13;3.92;;;9.20;99.90;;;;;;5064111;28;20203;-77
2022/04/23 01:42:18;;;;;;;4.60;4.20;;;9.20;99.90;;;;;;5043010;28;20181;-77
2022/04/23 01:44:51;;;;;;;4.57;4.28;;;9.10;99.90;;;;;;5046875;28;20204;-75
2022/04/23 01:47:18;;;;;;;4.32;4.03;;;9.10;99.90;;;;;;5051996;28;20191;-75
2022/04/23 01:49:44;;;;;;;4.68;4.00;;;9.20;99.90;;;;;;5033649;28;20658;-75
2022/04/23 01:52:10;;;;;;;4.47;4.10;;;9.20;99.90;;;;;;5044322;28;20191;-76
2022/04/23 01:54:36;;;;;;;4.40;4.10;;;9.10;99.90;;;;;;5053312;28;20211;-77
2022/04/23 01:57:02;;;;;;;4.88;4.10;;;9.20;99.90;;;;;;5035463;28;20187;-76
2022/04/23 01:59:28;;;;;;;3.92;3.60;;;9.30;99.90;;;;;;5035180;28;20207;-77
2022/04/23 02:01:54;;;;;;;3.83;3.63;;;9.40;99.90;;;;;;5035238;28;20207;-76
2022/04/23 02:04:19;;;;;;;5.22;3.10;;;9.40;99.90;;;;;;5033117;28;20553;-76
2022/04/23 02:06:45;;;;;;;4.65;4.30;;;9.50;99.90;;;;;;5033156;28;20239;-76
2022/04/23 02:09:12;;;;;;;4.07;3.78;;;9.50;99.90;;;;;;5015571;28;20188;-76
2022/04/23 02:11:38;;;;;;;4.20;3.90;;;9.50;99.90;;;;;;5033072;28;20180;-76
2022/04/23 02:14:04;;;;;;;4.50;4.20;;;9.50;99.90;;;;;;5033257;28;20679;-77
2022/04/23 02:16:30;;;;;;;4.03;3.78;;;9.50;99.90;;;;;;5033308;28;20196;-77
2022/04/23 02:18:57;;;;;;;4.22;3.88;;;9.50;99.90;;;;;;5032989;28;20173;-76
2022/04/23 02:21:24;;;;;;;4.80;4.38;;;9.50;99.90;;;;;;5033922;28;20188;-77
2022/04/23 02:23:50;;;;;;;4.28;3.97;;;9.60;99.90;;;;;;5061736;28;20172;-77
2022/04/23 02:26:16;;;;;;;4.30;3.90;;;9.60;99.90;;;;;;5050893;28;20263;-76
2022/04/23 02:28:41;;;;;;;4.82;4.43;;;9.60;99.90;;;;;;5051957;28;20647;-77
2022/04/23 02:31:07;;;;;;;4.47;4.18;;;9.50;99.90;;;;;;5032276;28;20355;-76
2022/04/23 02:33:33;;;;;;;4.72;4.25;;;9.60;99.90;;;;;;5045331;28;20190;-78
2022/04/23 02:35:59;;;;;;;4.97;4.68;;;9.50;99.90;;;;;;5042850;28;20687;-77
2022/04/23 02:38:24;;;;;;;5.38;4.97;;;9.50;99.90;;;;;;5040726;28;20183;-77
2022/04/23 02:40:50;;;;;;;4.50;4.15;;;9.50;99.90;;;;;;5044012;28;20207;-77
2022/04/23 02:43:16;;;;;;;4.57;4.28;;;9.50;99.90;;;;;;5037897;28;20184;-77
2022/04/23 02:45:41;;;;;;;4.68;4.38;;;9.50;99.90;;;;;;5033060;28;20638;-77
2022/04/23 02:48:09;;;;;;;4.68;4.28;;;9.60;99.90;;;;;;5040988;28;20176;-77
2022/04/23 02:50:39;;;;;;;4.70;4.40;;;9.60;99.90;;;;;;5047342;28;20231;-77
2022/04/23 02:53:06;;;;;;;4.93;4.53;;;9.70;99.90;;;;;;5030037;28;20216;-77
2022/04/23 02:55:33;;;;;;;4.97;4.53;;;9.70;99.90;;;;;;5045809;28;20201;-77
2022/04/23 02:58:10;;;;;;;4.82;4.53;;;9.70;99.90;;;;;;5044796;28;20238;-77
2022/04/23 03:00:40;;;;;;;5.15;4.75;;;9.70;99.90;;;;;;5052534;28;20574;-77
2022/04/23 03:03:07;;;;;;;5.40;5.00;;;9.70;99.90;;;;;;5044122;28;20172;-77
2022/04/23 03:05:33;;;;;;;5.38;4.97;;;9.60;99.90;;;;;;5040746;28;20211;-78
2022/04/23 03:08:02;;;;;;;5.30;4.90;;;9.60;99.90;;;;;;5040057;28;20180;-78
2022/04/23 03:10:28;;;;;;;5.53;5.07;;;9.60;99.90;;;;;;5044524;28;20176;-78
2022/04/23 03:12:57;;;;;;;5.72;5.32;;;9.70;99.90;;;;;;5051806;28;20191;-78
2022/04/23 03:15:25;;;;;;;6.25;5.80;;;9.70;99.90;;;;;;5050845;28;20610;-78
2022/04/23 03:18:05;;;;;;;5.97;5.50;;;9.70;99.90;;;;;;5043659;28;20263;-77
2022/04/23 03:20:31;;;;;;;6.40;5.85;;;9.70;99.90;;;;;;5014121;28;20682;-77
2022/04/23 03:22:57;;;;;;;6.80;6.22;;;9.70;99.90;;;;;;5031580;28;20266;-77
2022/04/23 03:25:22;;;;;;;6.43;5.93;;;9.70;99.90;;;;;;5031926;28;20283;-76
2022/04/23 03:27:48;;;;;;;6.75;6.15;;;9.70;99.90;;;;;;5044304;28;20187;-77
2022/04/23 03:30:14;;;;;;;7.22;6.68;;;9.70;99.90;;;;;;5057199;28;20194;-77
2022/04/23 03:32:41;;;;;;;7.13;6.53;;;9.70;99.90;;;;;;5061190;28;20642;-77
2022/04/23 03:35:08;;;;;;;7.13;6.53;;;9.70;99.90;;;;;;5051698;28;20204;-77
2022/04/23 03:37:34;;;;;;;7.45;6.75;;;9.70;99.90;;;;;;5050784;28;20191;-78
2022/04/23 03:39:59;;;;;;;7.25;6.65;;;9.60;99.90;;;;;;5051225;28;20207;-76
2022/04/23 03:42:25;;;;;;;8.02;7.43;;;9.70;99.90;;;;;;5051286;28;20654;-77
2022/04/23 03:44:50;;;;;;;7.18;6.68;;;9.70;99.90;;;;;;5040974;28;20218;-77
2022/04/23 03:47:16;;;;;;;7.47;6.88;;;9.70;99.90;;;;;;5051603;28;20165;-77
2022/04/23 03:49:42;;;;;;;6.90;6.40;;;9.60;99.90;;;;;;5051953;28;20271;-78
2022/04/23 03:52:10;;;;;;;7.53;6.93;;;9.60;99.90;;;;;;5051352;28;20195;-77
2022/04/23 03:54:36;;;;;;;7.47;6.93;;;9.60;99.90;;;;;;5049520;28;20206;-77
2022/04/23 03:57:02;;;;;;;9.32;7.22;;;9.70;99.90;;;;;;5051311;28;20192;-77
2022/04/23 03:59:29;;;;;;;8.13;7.38;;;9.70;99.90;;;;;;5051407;28;20195;-76
2022/04/23 04:01:55;;;;;;;8.05;7.35;;;9.70;99.90;;;;;;5050240;28;20172;-77
2022/04/23 04:04:21;;;;;;;8.88;8.07;;;9.70;99.90;;;;;;5051419;28;20190;-76
2022/04/23 04:06:46;;;;;;;8.55;7.82;;;9.70;99.90;;;;;;5050886;28;20267;-76
2022/04/23 04:09:12;;;;;;;9.48;8.57;;;9.70;99.90;;;;;;5051340;28;20637;-77
2022/04/23 04:14:22;;;;;;;9.15;8.35;;;9.70;99.90;;;;;;5051336;28;20639;-77
2022/04/23 04:16:49;;;;;;;8.70;8.00;;;9.70;99.90;;;;;;5051134;28;20184;-78
2022/04/23 04:19:15;;;;;;;9.75;8.85;;;9.80;99.90;;;;;;5050484;28;20289;-78
2022/04/23 04:21:43;;;;;;;9.90;9.02;;;9.80;99.90;;;;;;5050364;28;20520;-77
2022/04/23 04:24:12;;;;;;;10.05;9.15;;;9.80;99.90;;;;;;5051436;28;20180;-77
2022/04/23 04:26:40;;;;;;;8.57;7.88;;;9.90;99.90;;;;;;5057638;28;20548;-76
2022/04/23 04:29:06;;;;;;;10.10;9.20;;;10.00;99.90;;;;;;5043079;28;20188;-76
2022/04/23 04:31:47;;;;;;;10.70;9.77;;;10.00;99.90;;;;;;5045680;28;20187;-77
2022/04/23 04:34:13;;;;;;;9.73;8.82;;;10.10;99.90;;;;;;5050038;28;20199;-77
2022/04/23 04:36:39;;;;;;;9.55;8.65;;;10.10;99.90;;;;;;5039448;28;20192;-77
2022/04/23 04:39:05;;;;;;;9.60;8.80;;;10.10;99.90;;;;;;5050459;28;20574;-77
2022/04/23 04:41:31;;;;;;;10.35;9.38;;;10.10;99.90;;;;;;5040677;28;20172;-77
2022/04/23 04:43:57;;;;;;;9.75;8.88;;;10.10;99.90;;;;;;5038238;28;20177;-76
2022/04/23 04:46:23;;;;;;;9.45;8.57;;;10.10;99.90;;;;;;5040858;28;20181;-77
2022/04/23 04:48:49;;;;;;;10.63;9.52;;;10.10;99.90;;;;;;5042052;28;20655;-77
2022/04/23 04:51:15;;;;;;;10.48;9.48;;;10.10;99.90;;;;;;5044840;28;20172;-76
2022/04/23 04:53:40;;;;;;;11.27;10.27;;;10.10;99.90;;;;;;5044890;28;20176;-76
2022/04/23 04:56:07;;;;;;;10.85;9.95;;;10.20;99.90;;;;;;5049147;28;20176;-75
2022/04/23 04:58:33;;;;;;;9.60;8.73;;;10.20;99.90;;;;;;5053599;28;20222;-75
2022/04/23 05:00:59;;;;;;;9.25;8.35;;;10.30;99.90;;;;;;5047052;28;20231;-75
2022/04/23 05:03:25;;;;;;;10.38;9.48;;;10.40;99.90;;;;;;5051410;28;20259;-75
2022/04/23 05:05:51;;;;;;;10.70;9.75;;;10.50;99.90;;;;;;5053616;28;20654;-75
2022/04/23 05:08:17;;;;;;;9.70;8.80;;;10.60;99.90;;;;;;5040706;28;20243;-75
2022/04/23 05:10:43;;;;;;;9.50;8.70;;;10.60;99.90;;;;;;5053492;28;20184;-74
2022/04/23 05:13:09;;;;;;;10.73;9.73;;;10.60;99.90;;;;;;5054663;28;20168;-74
2022/04/23 05:15:35;;;;;;;10.45;9.45;;;10.80;99.90;;;;;;5048848;28;20278;-74
2022/04/23 05:18:00;;;;;;;10.07;9.07;;;10.90;99.90;;;;;;5046392;28;20176;-76
2022/04/23 05:20:26;;;;;;;9.63;8.50;;;11.00;99.90;;;;;;5049013;28;20200;-78
2022/04/23 05:22:52;;;;;;;9.32;8.52;;;11.20;99.90;;;;;;5044562;28;20172;-76
2022/04/23 05:25:18;;;;;;;10.18;9.27;;;11.30;99.90;;;;;;5055401;28;20203;-78
2022/04/23 05:27:43;;;;;;;10.18;9.18;;;11.50;99.90;;;;;;5028819;28;20181;-81
2022/04/23 05:30:09;;;;;;;8.73;7.97;;;11.60;99.90;;;;;;5027102;28;20192;-78
2022/04/23 05:32:35;;;;;;;9.15;8.25;;;11.90;99.90;;;;;;5044037;28;20203;-79
2022/04/23 05:35:01;;;;;;;8.77;7.97;;;12.10;99.90;;;;;;5066199;28;20196;-78
2022/04/23 05:37:26;;;;;;;9.02;8.13;;;12.20;99.90;;;;;;5066052;28;20184;-79
2022/04/23 05:39:52;;;;;;;8.18;7.43;;;12.30;99.90;;;;;;5054224;28;20220;-79
2022/04/23 05:42:18;;;;;;;9.00;8.10;;;12.50;99.90;;;;;;5057617;28;20172;-78
2022/04/23 05:44:43;;;;;;;7.63;7.03;;;12.50;99.90;;;;;;5056100;28;20218;-81
2022/04/23 05:47:09;;;;;;;9.27;8.48;;;12.50;99.90;;;;;;5043731;28;20177;-76
2022/04/23 05:49:37;;;;;;;8.27;7.57;;;12.40;99.90;;;;;;5038739;28;20208;-75
2022/04/23 05:52:04;;;;;;;9.02;7.93;;;12.40;99.90;;;;;;5034092;28;20717;-75
2022/04/23 05:54:30;;;;;;;7.88;7.28;;;12.40;99.90;;;;;;5053006;28;20588;-75
2022/04/23 05:56:55;;;;;;;8.02;7.25;;;12.30;99.90;;;;;;5053666;28;20179;-75
2022/04/23 05:59:21;;;;;;;7.95;7.20;;;12.30;99.90;;;;;;5053906;28;20697;-76
2022/04/23 06:01:47;;;;;;;7.93;7.22;;;12.20;99.90;;;;;;5059326;28;20172;-81
2022/04/23 06:04:12;;;;;;;8.60;7.90;;;12.30;99.90;;;;;;5039534;28;20207;-81
2022/04/23 06:06:38;;;;;;;6.78;6.22;;;12.30;99.90;;;;;;5045058;28;20179;-82
2022/04/23 06:09:04;;;;;;;7.05;6.53;;;12.30;99.90;;;;;;5062673;28;20263;-80
2022/04/23 06:11:29;;;;;;;7.68;7.07;;;12.40;99.90;;;;;;5047774;28;20180;-80
2022/04/23 06:13:55;;;;;;;6.45;5.95;;;12.50;99.90;;;;;;5082333;28;20181;-80
2022/04/23 06:16:20;;;;;;;7.45;6.85;;;12.40;99.90;;;;;;5075429;28;20669;-81
2022/04/23 06:18:46;;;;;;;6.72;6.22;;;12.40;99.90;;;;;;5026700;28;20698;-81
2022/04/23 06:21:12;;;;;;;6.80;6.20;;;12.50;99.90;;;;;;5033918;28;20212;-81
2022/04/23 06:23:37;;;;;;;7.57;7.05;;;12.50;99.90;;;;;;5034958;28;20179;-81
2022/04/23 06:26:03;;;;;;;7.88;7.07;;;12.70;99.90;;;;;;5051465;28;20203;-81
2022/04/23 06:28:29;;;;;;;6.70;6.10;;;12.80;99.90;;;;;;5034756;28;20192;-79
2022/04/23 06:30:55;;;;;;;6.55;6.05;;;12.80;99.90;;;;;;5060019;28;20183;-80
2022/04/23 06:33:20;;;;;;;5.68;5.28;;;12.80;99.90;;;;;;5043975;28;20248;-79
2022/04/23 06:35:46;;;;;;;6.45;5.85;;;12.90;99.90;;;;;;5040107;28;20686;-80
2022/04/23 06:38:17;;;;;;;6.10;5.63;;;12.90;99.90;;;;;;5028325;28;20728;-81
2022/04/23 06:40:42;;;;;;;6.38;5.88;;;13.00;99.90;;;;;;5035194;28;20209;-81
2022/04/23 06:43:08;;;;;;;6.85;6.32;;;13.10;99.90;;;;;;5047277;28;20214;-79
2022/04/23 06:45:33;;;;;;;6.72;6.13;;;13.10;99.90;;;;;;5057571;28;20222;-80
2022/04/23 06:48:04;;;;;;;6.18;5.57;;;13.20;99.90;;;;;;5066460;28;20171;-79
2022/04/23 06:50:31;;;;;;;6.22;5.63;;;13.30;99.90;;;;;;5046000;28;20176;-80
2022/04/23 06:52:58;;;;;;;6.50;5.90;;;13.40;99.90;;;;;;5057572;28;20175;-78
2022/04/23 06:55:24;;;;;;;6.70;5.97;;;13.60;99.90;;;;;;5068875;28;20209;-79
2022/04/23 06:57:49;;;;;;;5.65;5.25;;;13.70;99.90;;;;;;5074941;28;20282;-79
2022/04/23 07:00:15;;;;;;;5.35;4.95;;;13.60;99.90;;;;;;5051875;28;20284;-77
2022/04/23 07:02:41;;;;;;;5.40;5.00;;;13.70;99.90;;;;;;5042796;28;20282;-77
2022/04/23 07:05:08;;;;;;;4.43;4.13;;;13.70;99.90;;;;;;5046955;28;20721;-77
2022/04/23 07:07:33;;;;;;;5.13;4.72;;;13.90;99.90;;;;;;5030738;28;20202;-81
2022/04/23 07:09:59;;;;;;;6.10;5.60;;;13.80;99.90;;;;;;5056019;28;20579;-80
2022/04/23 07:12:25;;;;;;;5.05;4.65;;;13.80;99.90;;;;;;5043514;28;20189;-79
2022/04/23 07:14:51;;;;;;;4.93;4.53;;;13.50;99.90;;;;;;5044372;28;20270;-79
2022/04/23 07:17:24;;;;;;;4.25;4.00;;;13.60;99.90;;;;;;5035578;28;20230;-78
2022/04/23 07:19:51;;;;;;;5.10;4.70;;;13.70;99.90;;;;;;5036982;28;20694;-80
2022/04/23 07:22:17;;;;;;;5.40;4.93;;;13.80;99.90;;;;;;5034583;28;20176;-79
2022/04/23 07:24:43;;;;;;;4.47;4.18;;;13.80;99.90;;;;;;5035142;28;20187;-79
2022/04/23 07:27:08;;;;;;;4.68;4.35;;;13.80;99.90;;;;;;5057360;28;20176;-79
2022/04/23 07:29:40;;;;;;;4.80;4.50;;;13.90;99.90;;;;;;5061514;28;20203;-81
2022/04/23 07:32:06;;;;;;;4.50;4.20;;;13.90;99.90;;;;;;5042787;28;20254;-77
2022/04/23 07:37:31;;;;;;;4.97;4.57;;;14.10;99.90;;;;;;5039725;28;20187;-76
2022/04/23 07:40:01;;;;;;;4.72;4.43;;;14.20;99.90;;;;;;5033778;28;20198;-77
2022/04/23 07:42:28;;;;;;;5.05;4.63;;;14.20;99.90;;;;;;5046909;28;20186;-77
2022/04/23 07:44:54;;;;;;;4.55;4.25;;;14.20;99.90;;;;;;5049394;28;20282;-78
2022/04/23 07:47:20;;;;;;;5.05;4.65;;;14.30;99.90;;;;;;5045965;28;20180;-76
2022/04/23 07:49:46;;;;;;;4.75;4.45;;;14.30;99.90;;;;;;5052455;28;20623;-76
2022/04/23 07:52:12;;;;;;;4.88;4.53;;;14.60;99.90;;;;;;5035414;28;20207;-76
2022/04/23 07:54:38;;;;;;;4.60;4.15;;;14.60;99.90;;;;;;5047754;28;20667;-77
2022/04/23 07:57:08;;;;;;;5.20;4.80;;;14.70;99.90;;;;;;5052395;28;20271;-77
2022/04/23 07:59:38;;;;;;;4.60;4.30;;;14.90;99.90;;;;;;5052665;28;20725;-77
2022/04/23 08:02:04;;;;;;;4.18;3.88;;;15.20;99.90;;;;;;5040257;28;20184;-77
2022/04/23 08:04:29;;;;;;;4.38;3.97;;;15.40;99.90;;;;;;5027829;28;20286;-77
2022/04/23 08:06:56;;;;;;;4.97;4.57;;;15.60;99.90;;;;;;5049589;28;20246;-77
2022/04/23 08:09:22;;;;;;;5.10;4.70;;;15.70;99.90;;;;;;5051404;28;20211;-77
2022/04/23 08:11:47;;;;;;;4.72;4.32;;;16.00;99.90;;;;;;5040099;28;20617;-77
2022/04/23 08:14:14;;;;;;;5.32;4.88;;;16.40;99.90;;;;;;5025415;28;20204;-78
2022/04/23 08:16:39;;;;;;;5.45;5.03;;;16.70;99.90;;;;;;5052130;28;20176;-77
2022/04/23 08:19:05;;;;;;;5.25;4.85;;;16.80;99.90;;;;;;5039248;28;20259;-78
2022/04/23 08:21:31;;;;;;;5.60;5.10;;;16.90;99.90;;;;;;5050253;28;20221;-76
2022/04/23 08:23:56;;;;;;;5.45;5.05;;;17.10;99.90;;;;;;5063543;28;20172;-77
2022/04/23 08:26:25;;;;;;;6.90;5.05;;;17.30;99.90;;;;;;5059075;28;20534;-78
2022/04/23 08:31:34;;;;;;;5.32;4.95;;;18.00;99.90;;;;;;5054619;28;20202;-76
2022/04/23 08:34:00;;;;;;;5.80;5.35;;;18.00;99.90;;;;;;5055642;28;20203;-76
2022/04/23 08:36:29;;;;;;;6.47;5.90;;;17.70;99.90;;;;;;5055598;28;20230;-76
2022/04/23 08:38:56;;;;;;;6.43;5.78;;;17.60;99.90;;;;;;5052477;28;20647;-76
2022/04/23 08:41:29;;;;;;;5.35;4.95;;;17.70;99.90;;;;;;5046458;28;20848;-77
2022/04/23 08:44:07;;;;;;;5.13;4.72;;;17.90;99.90;;;;;;5046647;28;20221;-76
2022/04/23 08:46:40;;;;;;;5.30;4.90;;;18.00;99.90;;;;;;5045674;28;20204;-76
2022/04/23 08:49:16;;;;;;;5.70;5.30;;;18.20;99.90;;;;;;5046020;28;20209;-76
2022/04/23 08:51:53;;;;;;;5.38;4.93;;;18.10;99.90;;;;;;5048024;28;20171;-76
2022/04/23 08:54:22;;;;;;;6.82;6.05;;;18.10;99.90;;;;;;5046543;28;20551;-77
2022/04/23 08:56:48;;;;;;;5.45;5.05;;;18.30;99.70;;;;;;5054797;28;20635;-77
2022/04/23 08:59:15;;;;;;;5.40;5.00;;;18.30;99.20;;;;;;5061340;28;20187;-79
2022/04/23 09:01:43;;;;;;;5.47;5.05;;;18.10;98.80;;;;;;5050101;28;20176;-75
2022/04/23 09:04:09;;;;;;;7.97;5.80;;;18.00;98.70;;;;;;5042021;28;20742;-75
2022/04/23 09:06:39;;;;;;;6.18;5.65;;;17.90;99.00;;;;;;5048637;28;20270;-75
2022/04/23 09:09:13;;;;;;;6.40;5.85;;;17.80;99.50;;;;;;5045340;28;20259;-74
2022/04/23 09:11:40;;;;;;;5.55;5.13;;;17.70;99.50;;;;;;5048901;28;20169;-74
2022/04/23 09:14:07;;;;;;;6.40;5.90;;;17.40;99.90;;;;;;5037504;28;20665;-75
2022/04/23 09:25:11;;;;;;;6.38;5.88;;;17.10;99.90;;;;;;5047646;28;20732;-75
2022/04/23 09:27:43;;;;;;;6.35;5.85;;;17.00;99.90;;;;;;5045693;28;20198;-75
2022/04/23 09:30:13;;;;;;;8.05;7.35;;;16.90;99.90;;;;;;5046082;28;20188;-76
2022/04/23 09:32:58;;;;;;;15.00;13.50;;;16.80;99.90;;;;;;5040323;28;20195;-75
2022/04/23 09:35:25;;;;;;;14.73;13.23;;;16.70;99.90;;;;;;5040756;28;20214;-75
2022/04/23 09:40:35;;;;;;;14.43;12.95;;;16.40;99.90;;;;;;5063984;28;20248;-74
2022/04/23 09:43:05;;;;;;;15.10;13.60;;;16.30;99.90;;;;;;5042273;28;20180;-74
2022/04/23 09:45:32;;;;;;;15.25;13.85;;;16.20;99.90;;;;;;5043657;28;20195;-74
2022/04/23 09:48:03;;;;;;;13.70;12.48;;;16.20;99.90;;;;;;5050707;28;20179;-74
2022/04/23 09:50:39;;;;;;;14.30;12.90;;;16.10;99.90;;;;;;5049154;28;20173;-75
2022/04/23 09:53:09;;;;;;;14.30;12.90;;;16.10;99.90;;;;;;5041154;28;20563;-74
2022/04/23 09:55:38;;;;;;;14.90;13.40;;;16.20;99.90;;;;;;5043814;28;20196;-76
2022/04/23 09:58:06;;;;;;;15.65;14.05;;;16.30;99.90;;;;;;5056768;28;20223;-76
2022/04/23 10:00:36;;;;;;;16.45;14.80;;;16.40;99.90;;;;;;5051652;28;20200;-76
2022/04/23 10:03:03;;;;;;;17.30;15.70;;;16.40;99.90;;;;;;5036350;28;20184;-76
2022/04/23 10:05:29;;;;;;;16.23;14.52;;;16.50;99.90;;;;;;5054337;28;20278;-76
2022/04/23 10:07:57;;;;;;;16.33;14.60;;;16.50;99.90;;;;;;5054277;28;20164;-76
2022/04/23 10:10:28;;;;;;;14.82;13.38;;;16.70;99.90;;;;;;5058456;28;20211;-76
2022/04/23 10:13:00;;;;;;;14.32;12.93;;;17.00;99.90;;;;;;5040526;28;20232;-77
2022/04/23 10:15:26;;;;;;;13.35;12.00;;;17.60;99.90;;;;;;5042256;28;20269;-76
2022/04/23 10:17:56;;;;;;;14.35;12.95;;;18.40;99.90;;;;;;5050639;28;20168;-79
2022/04/23 10:20:22;;;;;;;13.70;12.32;;;19.20;99.90;;;;;;5031908;28;20209;-78
2022/04/23 10:23:08;;;;;;;14.02;12.73;;;19.90;99.10;;;;;;5044695;28;20175;-78
2022/04/23 10:25:49;;;;;;;12.05;10.88;;;20.70;96.90;;;;;;5050248;28;20280;-79
2022/04/23 10:28:19;;;;;;;10.35;9.35;;;21.40;95.00;;;;;;5058707;28;20184;-81
2022/04/23 10:30:48;;;;;;;10.00;9.20;;;22.30;92.40;;;;;;5056839;28;20188;-80
2022/04/23 10:33:27;;;;;;;9.63;8.82;;;23.10;90.50;;;;;;5040143;28;20215;-80
2022/04/23 10:36:03;;;;;;;9.68;8.77;;;24.30;84.10;;;;;;5044914;28;20286;-77
2022/04/23 10:38:29;;;;;;;8.20;7.50;;;25.00;75.40;;;;;;5047120;28;20191;-77
2022/04/23 10:40:56;;;;;;;8.00;7.40;;;25.50;73.90;;;;;;5047895;28;20192;-80
2022/04/23 10:43:21;;;;;;;7.70;7.10;;;25.90;69.30;;;;;;5051985;28;20207;-79
2022/04/23 10:45:48;;;;;;;8.48;7.88;;;26.00;66.20;;;;;;5054704;28;20203;-79
2022/04/23 10:48:26;;;;;;;8.50;7.80;;;26.00;66.40;;;;;;5049230;28;20199;-80
2022/04/23 10:51:04;;;;;;;11.30;9.60;;;25.80;65.90;;;;;;5055179;28;20565;-79
2022/04/23 10:53:37;;;;;;;10.70;9.82;;;25.50;64.10;;;;;;5053251;28;20180;-79
2022/04/23 10:56:07;;;;;;;13.25;12.05;;;25.30;66.50;;;;;;5054447;28;20571;-79
2022/04/23 10:58:33;;;;;;;13.85;12.65;;;25.40;67.10;;;;;;5060585;28;20215;-79
2022/04/23 11:01:23;;;;;;;16.02;14.63;;;25.20;67.00;;;;;;5054031;28;20207;-79
2022/04/23 11:03:56;;;;;;;15.05;13.75;;;24.40;67.20;;;;;;5054859;28;20179;-79
2022/04/23 11:12:20;;;;;;;13.90;12.63;;;23.30;72.60;;;;;;5051188;28;20219;-79
2022/04/23 11:14:50;;;;;;;16.10;14.60;;;23.30;72.50;;;;;;5048169;28;20679;-79
2022/04/23 11:17:20;;;;;;;15.60;14.23;;;23.50;72.20;;;;;;5047414;28;20207;-79
2022/04/23 11:19:53;;;;;;;14.05;12.65;;;23.70;72.60;;;;;;5051172;28;20212;-79
2022/04/23 11:22:23;;;;;;;14.45;13.23;;;24.10;71.50;;;;;;5046347;28;20168;-80
2022/04/23 11:24:51;;;;;;;12.18;11.18;;;24.40;68.70;;;;;;5050517;28;20247;-79
2022/04/23 11:27:27;;;;;;;10.13;9.30;;;24.00;67.00;;;;;;5047813;28;20176;-80
2022/04/23 11:29:53;;;;;;;11.18;10.18;;;23.80;69.10;;;;;;5070370;28;20187;-78
2022/04/23 11:32:29;;;;;;;11.60;10.57;;;23.70;68.90;;;;;;5048633;28;20543;-76
2022/04/23 11:35:04;;;;;;;10.95;10.05;;;23.90;68.70;;;;;;5036917;28;20192;-79
2022/04/23 11:37:36;;;;;;;11.75;10.75;;;24.50;68.50;;;;;;5055940;28;20182;-78
2022/04/23 11:40:13;;;;;;;9.40;8.43;;;24.70;66.40;;;;;;5047287;28;20261;-77
2022/04/23 11:42:46;;;;;;;8.77;8.07;;;24.90;66.20;;;;;;5048749;28;20183;-78
2022/04/23 11:45:14;;;;;;;9.80;9.00;;;24.50;65.00;;;;;;5047937;28;20210;-78
2022/04/23 11:47:39;;;;;;;9.23;8.52;;;24.10;66.70;;;;;;5038870;28;20244;-77
2022/04/23 11:50:12;;;;;;;9.98;9.02;;;23.60;67.30;;;;;;5039597;28;20216;-77
2022/04/23 11:52:39;;;;;;;8.65;7.95;;;23.50;67.50;;;;;;5066131;28;20178;-77
2022/04/23 11:55:05;;;;;;;7.72;7.13;;;23.10;67.40;;;;;;5042397;28;20192;-77
2022/04/23 11:57:31;;;;;;;9.05;8.35;;;23.10;69.40;;;;;;5049014;28;20275;-78
2022/04/23 12:00:00;;;;;;;8.63;7.93;;;23.40;68.00;;;;;;5038562;28;20224;-77
2022/04/23 12:02:28;;;;;;;8.45;7.75;;;23.40;67.80;;;;;;5049482;28;20187;-77
2022/04/23 12:04:58;;;;;;;8.43;7.82;;;23.80;67.00;;;;;;5043357;28;20259;-78
2022/04/23 12:07:25;;;;;;;7.72;7.13;;;23.90;65.70;;;;;;5055456;28;20164;-78
2022/04/23 12:09:55;;;;;;;7.43;6.93;;;24.50;65.70;;;;;;5051666;28;20215;-77
2022/04/23 12:12:22;;;;;;;10.15;9.30;;;25.10;64.50;;;;;;5052569;28;20176;-78
2022/04/23 12:15:00;;;;;;;13.45;12.25;;;25.30;64.50;;;;;;5053139;28;20202;-76
2022/04/23 12:17:29;;;;;;;13.40;12.23;;;25.30;63.60;;;;;;5026550;28;20180;-77
2022/04/23 12:19:59;;;;;;;11.10;10.20;;;25.00;65.00;;;;;;5054191;28;20253;-77
2022/04/23 12:22:33;;;;;;;12.90;11.80;;;25.00;65.20;;;;;;5032339;28;20165;-76
2022/04/23 12:25:08;;;;;;;12.85;11.65;;;24.70;64.70;;;;;;5038413;28;20675;-75
2022/04/23 12:27:51;;;;;;;11.65;10.65;;;24.60;65.20;;;;;;5038605;28;20172;-75
2022/04/23 12:41:24;;;;;;;11.38;10.38;;;28.00;59.30;;;;;;5035054;28;20211;-75
2022/04/23 12:43:52;;;;;;;11.57;10.60;;;29.20;56.80;;;;;;5037614;28;20697;-73
2022/04/23 12:46:17;;;;;;;9.73;8.93;;;30.10;53.70;;;;;;5053494;28;20814;-73
2022/04/23 12:48:59;;;;;;;9.93;9.20;;;30.30;53.40;;;;;;5035129;28;20184;-73
2022/04/23 12:51:25;;;;;;;10.52;9.00;;;30.20;53.00;;;;;;5034833;28;20654;-73
2022/04/23 12:53:51;;;;;;;10.20;9.40;;;29.70;52.90;;;;;;5046207;28;20207;-73
2022/04/23 12:56:19;;;;;;;9.30;8.50;;;28.80;53.00;;;;;;5034969;28;20173;-73
2022/04/23 12:58:45;;;;;;;9.93;9.02;;;28.00;54.50;;;;;;5046927;28;20198;-72
2022/04/23 13:01:12;;;;;;;10.93;10.07;;;27.10;55.40;;;;;;5034264;28;20192;-75
2022/04/23 13:03:44;;;;;;;10.00;9.23;;;26.10;56.30;;;;;;5034540;28;20169;-75
2022/04/23 13:08:55;;;;;;;10.07;9.18;;;23.10;62.00;;;;;;5041020;28;20214;-75
2022/04/23 13:11:24;;;;;;;11.00;10.00;;;22.60;64.60;;;;;;5052319;28;20654;-75
2022/04/23 13:13:53;;;;;;;10.85;9.90;;;22.90;65.50;;;;;;5042462;28;20200;-75
2022/04/23 13:16:18;;;;;;;8.93;8.23;;;23.20;65.30;;;;;;5052650;28;20638;-75
2022/04/23 13:18:44;;;;;;;8.82;8.13;;;24.00;64.60;;;;;;5053099;28;20225;-75
2022/04/23 13:21:09;;;;;;;9.18;8.38;;;25.00;62.40;;;;;;5052954;28;20574;-75
2022/04/23 13:23:35;;;;;;;8.88;8.18;;;25.90;60.30;;;;;;5050351;28;20253;-75
2022/04/23 13:26:01;;;;;;;8.70;7.97;;;26.20;58.70;;;;;;5043307;28;20188;-75
2022/04/23 13:28:26;;;;;;;9.00;8.07;;;26.20;58.80;;;;;;5039979;28;20196;-75